Friday, January 19, 2018, 2:28 AM EST
Back to Local

KEWR, Newark International Airport

Location: Elizabeth, NJ, United States Lat: 40.683
Local Time: 2:28 AM EST ( 7:28 GMT) Lon: -74.167
Time Zone: US/Eastern Elev: 16 ft

Show me the last for .
Show Decoded

2018-01-19 01:51 METAR KEWR 190651Z 27004KT 10SM CLR M05/M11 A3005 RMK AO2 SLP176 T10501111 =
2018-01-19 00:51 METAR KEWR 190551Z 26005KT 10SM CLR M04/M12 A3006 RMK AO2 SLP178 T10391117 11011
                 21044 58013 =
2018-01-18 23:51 METAR KEWR 190451Z 28006KT 10SM CLR M03/M11 A3008 RMK AO2 SLP186 T10331111
                 400171083 =
2018-01-18 22:51 METAR KEWR 190351Z 31008KT 10SM CLR M03/M11 A3009 RMK AO2 SLP187 T10331111 =
2018-01-18 21:51 METAR KEWR 190251Z 29008KT 10SM CLR M03/M11 A3010 RMK AO2 SLP190 T10281111 53020
                 =
2018-01-18 20:51 METAR KEWR 190151Z 28008KT 10SM CLR M02/M11 A3008 RMK AO2 SLP184 T10221111 =
2018-01-18 19:51 METAR KEWR 190051Z 30008G15KT 10SM CLR M02/M12 A3004 RMK AO2 SLP173 T10171117 =
2018-01-18 18:51 METAR KEWR 182351Z 28009KT 10SM CLR M02/M12 A3004 RMK AO2 SLP171 T10171117 10017
                 21017 53030 =
2018-01-18 17:51 METAR KEWR 182251Z 29010G17KT 10SM CLR M01/M12 A3001 RMK AO2 SLP161 T10111117 =
2018-01-18 16:51 METAR KEWR 182151Z 30010G22KT 10SM CLR M01/M12 A2996 RMK AO2 SLP145 T10061117 =
2018-01-18 15:51 METAR KEWR 182051Z 29012G22KT 10SM CLR 01/M12 A2995 RMK AO2 SLP141 T00111122
                 55009 =
2018-01-18 14:51 METAR KEWR 181951Z 29013G21KT 10SM CLR 01/M13 A2994 RMK AO2 SLP137 T00111128 =
2018-01-18 13:51 METAR KEWR 181851Z 31014KT 10SM FEW250 01/M14 A2994 RMK AO2 SLP139 T00061139 =
2018-01-18 12:51 METAR KEWR 181751Z 31014G19KT 10SM FEW250 00/M13 A2998 RMK AO2 SLP150 T00001133
                 10000 21078 58034 =
2018-01-18 11:51 METAR KEWR 181651Z 31013KT 10SM FEW250 M01/M14 A3001 RMK AO2 SLP162 T10111144 =
2018-01-18 10:51 METAR KEWR 181551Z 30014KT 10SM FEW250 M02/M14 A3006 RMK AO2 SLP178 T10171139 =
2018-01-18 09:51 METAR KEWR 181451Z 29012KT 10SM SCT250 M03/M13 A3008 RMK AO2 SLP184 T10331133
                 55009 =
2018-01-18 08:51 METAR KEWR 181351Z 32015KT 10SM SCT250 M06/M14 A3006 RMK AO2 SLP177 T10561139 =
2018-01-18 07:51 METAR KEWR 181251Z 28009KT 10SM FEW030 FEW250 M07/M13 A3010 RMK AO2 SLP191
                 T10721128 =
2018-01-18 06:51 METAR KEWR 181151Z 23009KT 10SM FEW030 SCT250 M07/M13 A3010 RMK AO2 SLP193 70016
                 T10721133 11067 21083 53010 =
2018-01-18 05:51 METAR KEWR 181051Z 00000KT 10SM CLR M08/M13 A3005 RMK AO2 SLP174 T10781133 =
2018-01-18 04:51 METAR KEWR 180951Z 30006KT 10SM CLR M08/M13 A3006 RMK AO2 SLP179 T10781133 =
2018-01-18 03:51 METAR KEWR 180851Z 32011KT 10SM CLR M07/M13 A3007 RMK AO2 PRESFR SLP183
                 T10721133 58027 =
2018-01-18 02:51 METAR KEWR 180751Z 31009KT 10SM CLR M07/M13 A3013 RMK AO2 SLP203 T10721128 =

Support USWX by starting your Amazon purchase here.